sensor_id;sensor_type;location;lat;lon;timestamp;temperature;humidity
27567;DHT22;15006;48.584;9.186;2023-05-10T00:01:19;10.70;99.90
27567;DHT22;15006;48.584;9.186;2023-05-10T00:03:46;10.70;99.90
27567;DHT22;15006;48.584;9.186;2023-05-10T00:06:12;10.70;99.90
27567;DHT22;15006;48.584;9.186;2023-05-10T00:08:38;10.70;99.90
27567;DHT22;15006;48.584;9.186;2023-05-10T00:11:05;10.70;99.90
27567;DHT22;15006;48.584;9.186;2023-05-10T00:13:31;10.70;99.90
27567;DHT22;15006;48.584;9.186;2023-05-10T00:15:58;10.70;99.90
27567;DHT22;15006;48.584;9.186;2023-05-10T00:18:25;10.70;99.90
27567;DHT22;15006;48.584;9.186;2023-05-10T00:20:52;10.70;99.90
27567;DHT22;15006;48.584;9.186;2023-05-10T00:23:18;10.70;99.90
27567;DHT22;15006;48.584;9.186;2023-05-10T00:25:45;10.70;99.90
27567;DHT22;15006;48.584;9.186;2023-05-10T00:28:11;10.70;99.90
27567;DHT22;15006;48.584;9.186;2023-05-10T00:30:37;10.70;99.90
27567;DHT22;15006;48.584;9.186;2023-05-10T00:33:04;10.70;99.90
27567;DHT22;15006;48.584;9.186;2023-05-10T00:35:30;10.70;99.90
27567;DHT22;15006;48.584;9.186;2023-05-10T00:37:56;10.70;99.90
27567;DHT22;15006;48.584;9.186;2023-05-10T00:40:22;10.70;99.90
27567;DHT22;15006;48.584;9.186;2023-05-10T00:42:49;10.70;99.90
27567;DHT22;15006;48.584;9.186;2023-05-10T00:45:15;10.70;99.90
27567;DHT22;15006;48.584;9.186;2023-05-10T00:47:41;10.60;99.90
27567;DHT22;15006;48.584;9.186;2023-05-10T00:50:08;10.60;99.90
27567;DHT22;15006;48.584;9.186;2023-05-10T00:52:34;10.60;99.90
27567;DHT22;15006;48.584;9.186;2023-05-10T00:55:01;10.60;99.90
27567;DHT22;15006;48.584;9.186;2023-05-10T00:57:29;10.50;99.90
27567;DHT22;15006;48.584;9.186;2023-05-10T00:59:55;10.50;99.90
27567;DHT22;15006;48.584;9.186;2023-05-10T01:02:21;10.50;99.90
27567;DHT22;15006;48.584;9.186;2023-05-10T01:04:47;10.40;99.90
27567;DHT22;15006;48.584;9.186;2023-05-10T01:07:13;10.40;99.90
27567;DHT22;15006;48.584;9.186;2023-05-10T01:09:39;10.40;99.90
27567;DHT22;15006;48.584;9.186;2023-05-10T01:12:05;10.40;99.90
27567;DHT22;15006;48.584;9.186;2023-05-10T01:14:33;10.40;99.90
27567;DHT22;15006;48.584;9.186;2023-05-10T01:17:02;10.30;99.90
27567;DHT22;15006;48.584;9.186;2023-05-10T01:19:30;10.30;99.90
27567;DHT22;15006;48.584;9.186;2023-05-10T01:25:13;10.30;99.90
27567;DHT22;15006;48.584;9.186;2023-05-10T01:31:06;10.30;99.90
27567;DHT22;15006;48.584;9.186;2023-05-10T01:36:35;10.20;99.90
27567;DHT22;15006;48.584;9.186;2023-05-10T01:39:14;10.20;99.90
27567;DHT22;15006;48.584;9.186;2023-05-10T01:41:48;10.20;99.90
27567;DHT22;15006;48.584;9.186;2023-05-10T01:44:31;10.20;99.90
27567;DHT22;15006;48.584;9.186;2023-05-10T01:47:06;10.20;99.90
27567;DHT22;15006;48.584;9.186;2023-05-10T01:49:50;10.20;99.90
27567;DHT22;15006;48.584;9.186;2023-05-10T01:52:22;10.20;99.90
27567;DHT22;15006;48.584;9.186;2023-05-10T01:55:04;10.20;99.90
27567;DHT22;15006;48.584;9.186;2023-05-10T01:57:36;10.20;99.90
27567;DHT22;15006;48.584;9.186;2023-05-10T02:00:08;10.20;99.90
27567;DHT22;15006;48.584;9.186;2023-05-10T02:02:40;10.20;99.90
27567;DHT22;15006;48.584;9.186;2023-05-10T02:05:08;10.20;99.90
27567;DHT22;15006;48.584;9.186;2023-05-10T02:07:37;10.20;99.90
27567;DHT22;15006;48.584;9.186;2023-05-10T02:10:08;10.20;99.90
27567;DHT22;15006;48.584;9.186;2023-05-10T02:12:41;10.20;99.90
27567;DHT22;15006;48.584;9.186;2023-05-10T02:15:11;10.10;99.90
27567;DHT22;15006;48.584;9.186;2023-05-10T02:17:39;10.10;99.90
27567;DHT22;15006;48.584;9.186;2023-05-10T02:20:06;10.10;99.90
27567;DHT22;15006;48.584;9.186;2023-05-10T02:22:35;10.10;99.90
27567;DHT22;15006;48.584;9.186;2023-05-10T02:25:02;10.10;99.90
27567;DHT22;15006;48.584;9.186;2023-05-10T02:27:30;10.00;99.90
27567;DHT22;15006;48.584;9.186;2023-05-10T02:29:57;10.00;99.90
27567;DHT22;15006;48.584;9.186;2023-05-10T02:32:25;10.00;99.90
27567;DHT22;15006;48.584;9.186;2023-05-10T02:34:52;9.90;99.90
27567;DHT22;15006;48.584;9.186;2023-05-10T02:37:20;9.90;99.90
27567;DHT22;15006;48.584;9.186;2023-05-10T02:39:53;9.90;99.90
27567;DHT22;15006;48.584;9.186;2023-05-10T02:42:24;9.90;99.90
27567;DHT22;15006;48.584;9.186;2023-05-10T02:44:57;9.80;99.90
27567;DHT22;15006;48.584;9.186;2023-05-10T02:47:25;9.80;99.90
27567;DHT22;15006;48.584;9.186;2023-05-10T02:49:52;9.80;99.90
27567;DHT22;15006;48.584;9.186;2023-05-10T02:52:22;9.80;99.90
27567;DHT22;15006;48.584;9.186;2023-05-10T02:54:54;9.80;99.90
27567;DHT22;15006;48.584;9.186;2023-05-10T02:57:26;9.70;99.90
27567;DHT22;15006;48.584;9.186;2023-05-10T02:59:54;9.70;99.90
27567;DHT22;15006;48.584;9.186;2023-05-10T03:02:21;9.60;99.90
27567;DHT22;15006;48.584;9.186;2023-05-10T03:04:47;9.60;99.90
27567;DHT22;15006;48.584;9.186;2023-05-10T03:07:13;9.60;99.90
27567;DHT22;15006;48.584;9.186;2023-05-10T03:09:39;9.60;99.90
27567;DHT22;15006;48.584;9.186;2023-05-10T03:12:14;9.60;99.90
27567;DHT22;15006;48.584;9.186;2023-05-10T03:14:53;9.50;99.90
27567;DHT22;15006;48.584;9.186;2023-05-10T03:17:30;9.50;99.90
27567;DHT22;15006;48.584;9.186;2023-05-10T03:20:24;9.50;99.90
27567;DHT22;15006;48.584;9.186;2023-05-10T03:22:55;9.50;99.90
27567;DHT22;15006;48.584;9.186;2023-05-10T03:25:23;9.50;99.90
27567;DHT22;15006;48.584;9.186;2023-05-10T03:27:49;9.50;99.90
27567;DHT22;15006;48.584;9.186;2023-05-10T03:30:16;9.40;99.90
27567;DHT22;15006;48.584;9.186;2023-05-10T03:32:43;9.50;99.90
27567;DHT22;15006;48.584;9.186;2023-05-10T03:35:10;9.40;99.90
27567;DHT22;15006;48.584;9.186;2023-05-10T03:37:38;9.40;99.90
27567;DHT22;15006;48.584;9.186;2023-05-10T03:40:04;9.40;99.90
27567;DHT22;15006;48.584;9.186;2023-05-10T03:42:31;9.40;99.90
27567;DHT22;15006;48.584;9.186;2023-05-10T03:44:57;9.40;99.90
27567;DHT22;15006;48.584;9.186;2023-05-10T03:47:23;9.40;99.90
27567;DHT22;15006;48.584;9.186;2023-05-10T03:49:49;9.30;99.90
27567;DHT22;15006;48.584;9.186;2023-05-10T03:52:15;9.40;99.90
27567;DHT22;15006;48.584;9.186;2023-05-10T03:54:41;9.30;99.90
27567;DHT22;15006;48.584;9.186;2023-05-10T03:57:08;9.30;99.90
27567;DHT22;15006;48.584;9.186;2023-05-10T03:59:35;9.30;99.90
27567;DHT22;15006;48.584;9.186;2023-05-10T04:02:01;9.30;99.90
27567;DHT22;15006;48.584;9.186;2023-05-10T04:04:27;9.30;99.90
27567;DHT22;15006;48.584;9.186;2023-05-10T04:06:53;9.20;99.90
27567;DHT22;15006;48.584;9.186;2023-05-10T04:09:20;9.30;99.90
27567;DHT22;15006;48.584;9.186;2023-05-10T04:11:46;9.20;99.90
27567;DHT22;15006;48.584;9.186;2023-05-10T04:14:12;9.20;99.90
27567;DHT22;15006;48.584;9.186;2023-05-10T04:16:39;9.20;99.90
27567;DHT22;15006;48.584;9.186;2023-05-10T04:19:06;9.20;99.90
27567;DHT22;15006;48.584;9.186;2023-05-10T04:21:32;9.20;99.90
27567;DHT22;15006;48.584;9.186;2023-05-10T04:23:58;9.20;99.90
27567;DHT22;15006;48.584;9.186;2023-05-10T04:26:24;9.20;99.90
27567;DHT22;15006;48.584;9.186;2023-05-10T04:28:51;9.20;99.90
27567;DHT22;15006;48.584;9.186;2023-05-10T04:31:17;9.20;99.90
27567;DHT22;15006;48.584;9.186;2023-05-10T04:33:43;9.20;99.90
27567;DHT22;15006;48.584;9.186;2023-05-10T04:36:10;9.20;99.90
27567;DHT22;15006;48.584;9.186;2023-05-10T04:38:36;9.20;99.90
27567;DHT22;15006;48.584;9.186;2023-05-10T04:41:09;9.20;99.90
27567;DHT22;15006;48.584;9.186;2023-05-10T04:43:36;9.30;99.90
27567;DHT22;15006;48.584;9.186;2023-05-10T04:46:04;9.30;99.90
27567;DHT22;15006;48.584;9.186;2023-05-10T04:48:30;9.30;99.90
27567;DHT22;15006;48.584;9.186;2023-05-10T04:50:56;9.30;99.90
27567;DHT22;15006;48.584;9.186;2023-05-10T04:53:23;9.30;99.90
27567;DHT22;15006;48.584;9.186;2023-05-10T04:55:49;9.40;99.90
27567;DHT22;15006;48.584;9.186;2023-05-10T04:58:15;9.40;99.90
27567;DHT22;15006;48.584;9.186;2023-05-10T05:00:41;9.40;99.90
27567;DHT22;15006;48.584;9.186;2023-05-10T05:03:08;9.40;99.90
27567;DHT22;15006;48.584;9.186;2023-05-10T05:05:34;9.40;99.90
27567;DHT22;15006;48.584;9.186;2023-05-10T05:08:00;9.50;99.90
27567;DHT22;15006;48.584;9.186;2023-05-10T05:10:27;9.50;99.90
27567;DHT22;15006;48.584;9.186;2023-05-10T05:12:53;9.50;99.90
27567;DHT22;15006;48.584;9.186;2023-05-10T05:15:19;9.50;99.90
27567;DHT22;15006;48.584;9.186;2023-05-10T05:17:45;9.60;99.90
27567;DHT22;15006;48.584;9.186;2023-05-10T05:20:11;9.60;99.90
27567;DHT22;15006;48.584;9.186;2023-05-10T05:22:38;9.60;99.90
27567;DHT22;15006;48.584;9.186;2023-05-10T05:25:05;9.60;99.90
27567;DHT22;15006;48.584;9.186;2023-05-10T05:27:31;9.60;99.90
27567;DHT22;15006;48.584;9.186;2023-05-10T05:29:57;9.60;99.90
27567;DHT22;15006;48.584;9.186;2023-05-10T05:32:24;9.60;99.90
27567;DHT22;15006;48.584;9.186;2023-05-10T05:34:51;9.70;99.90
27567;DHT22;15006;48.584;9.186;2023-05-10T05:37:19;9.70;99.90
27567;DHT22;15006;48.584;9.186;2023-05-10T05:39:46;9.70;99.90
27567;DHT22;15006;48.584;9.186;2023-05-10T05:42:13;9.70;99.90
27567;DHT22;15006;48.584;9.186;2023-05-10T05:44:39;9.80;99.90
27567;DHT22;15006;48.584;9.186;2023-05-10T05:47:06;9.80;99.90
27567;DHT22;15006;48.584;9.186;2023-05-10T05:49:32;9.80;99.90
27567;DHT22;15006;48.584;9.186;2023-05-10T05:51:59;9.80;99.90
27567;DHT22;15006;48.584;9.186;2023-05-10T05:54:29;9.80;99.90
27567;DHT22;15006;48.584;9.186;2023-05-10T05:56:56;9.90;99.90
27567;DHT22;15006;48.584;9.186;2023-05-10T05:59:24;9.90;99.90
27567;DHT22;15006;48.584;9.186;2023-05-10T06:01:50;9.90;99.90
27567;DHT22;15006;48.584;9.186;2023-05-10T06:04:17;9.90;99.90
27567;DHT22;15006;48.584;9.186;2023-05-10T06:06:43;9.90;99.90
27567;DHT22;15006;48.584;9.186;2023-05-10T06:09:09;10.00;99.90
27567;DHT22;15006;48.584;9.186;2023-05-10T06:11:36;10.00;99.90
27567;DHT22;15006;48.584;9.186;2023-05-10T06:14:03;9.90;99.90
27567;DHT22;15006;48.584;9.186;2023-05-10T06:16:30;10.00;99.90
27567;DHT22;15006;48.584;9.186;2023-05-10T06:18:56;10.00;99.90
27567;DHT22;15006;48.584;9.186;2023-05-10T06:21:22;10.00;99.90
27567;DHT22;15006;48.584;9.186;2023-05-10T06:23:48;10.00;99.90
27567;DHT22;15006;48.584;9.186;2023-05-10T06:26:15;10.10;99.90
27567;DHT22;15006;48.584;9.186;2023-05-10T06:28:41;10.10;99.90
27567;DHT22;15006;48.584;9.186;2023-05-10T06:31:07;10.10;99.90
27567;DHT22;15006;48.584;9.186;2023-05-10T06:33:33;10.10;99.90
27567;DHT22;15006;48.584;9.186;2023-05-10T06:35:59;10.10;99.90
27567;DHT22;15006;48.584;9.186;2023-05-10T06:38:26;10.10;99.90
27567;DHT22;15006;48.584;9.186;2023-05-10T06:40:52;10.10;99.90
27567;DHT22;15006;48.584;9.186;2023-05-10T06:43:18;10.10;99.90
27567;DHT22;15006;48.584;9.186;2023-05-10T06:45:44;10.20;99.90
27567;DHT22;15006;48.584;9.186;2023-05-10T06:48:10;10.20;99.90
27567;DHT22;15006;48.584;9.186;2023-05-10T06:50:36;10.20;99.90
27567;DHT22;15006;48.584;9.186;2023-05-10T06:53:02;10.30;99.90
27567;DHT22;15006;48.584;9.186;2023-05-10T06:55:29;10.30;99.90
27567;DHT22;15006;48.584;9.186;2023-05-10T06:57:55;10.30;99.90
27567;DHT22;15006;48.584;9.186;2023-05-10T07:00:21;10.40;99.90
27567;DHT22;15006;48.584;9.186;2023-05-10T07:02:47;10.40;99.90
27567;DHT22;15006;48.584;9.186;2023-05-10T07:05:13;10.50;99.90
27567;DHT22;15006;48.584;9.186;2023-05-10T07:07:41;10.50;99.90
27567;DHT22;15006;48.584;9.186;2023-05-10T07:10:07;10.60;99.90
27567;DHT22;15006;48.584;9.186;2023-05-10T07:12:34;10.70;99.90
27567;DHT22;15006;48.584;9.186;2023-05-10T07:15:00;10.70;99.90
27567;DHT22;15006;48.584;9.186;2023-05-10T07:17:27;10.80;99.90
27567;DHT22;15006;48.584;9.186;2023-05-10T07:19:53;10.80;99.90
27567;DHT22;15006;48.584;9.186;2023-05-10T07:22:19;10.90;99.90
27567;DHT22;15006;48.584;9.186;2023-05-10T07:24:45;10.90;99.90
27567;DHT22;15006;48.584;9.186;2023-05-10T07:27:11;10.90;99.90
27567;DHT22;15006;48.584;9.186;2023-05-10T07:29:38;11.00;99.90
27567;DHT22;15006;48.584;9.186;2023-05-10T07:32:04;11.00;99.90
27567;DHT22;15006;48.584;9.186;2023-05-10T07:34:31;11.00;99.90
27567;DHT22;15006;48.584;9.186;2023-05-10T07:36:58;11.00;99.90
27567;DHT22;15006;48.584;9.186;2023-05-10T07:39:26;11.00;99.90
27567;DHT22;15006;48.584;9.186;2023-05-10T07:41:52;11.00;99.90
27567;DHT22;15006;48.584;9.186;2023-05-10T07:44:18;11.00;99.90
27567;DHT22;15006;48.584;9.186;2023-05-10T07:46:46;11.00;99.90
27567;DHT22;15006;48.584;9.186;2023-05-10T07:49:13;11.00;99.90
27567;DHT22;15006;48.584;9.186;2023-05-10T07:51:39;11.10;99.90
27567;DHT22;15006;48.584;9.186;2023-05-10T07:54:05;11.00;99.90
27567;DHT22;15006;48.584;9.186;2023-05-10T07:56:32;11.00;99.90
27567;DHT22;15006;48.584;9.186;2023-05-10T07:58:59;11.00;99.90
27567;DHT22;15006;48.584;9.186;2023-05-10T08:01:25;11.00;99.90
27567;DHT22;15006;48.584;9.186;2023-05-10T08:03:52;11.00;99.90
27567;DHT22;15006;48.584;9.186;2023-05-10T08:06:19;11.00;99.90
27567;DHT22;15006;48.584;9.186;2023-05-10T08:08:47;11.00;99.90
27567;DHT22;15006;48.584;9.186;2023-05-10T08:11:20;11.00;99.90
27567;DHT22;15006;48.584;9.186;2023-05-10T08:13:49;11.10;99.90
27567;DHT22;15006;48.584;9.186;2023-05-10T08:16:16;11.10;99.90
27567;DHT22;15006;48.584;9.186;2023-05-10T08:18:44;11.10;99.90
27567;DHT22;15006;48.584;9.186;2023-05-10T08:21:15;11.10;99.90
27567;DHT22;15006;48.584;9.186;2023-05-10T08:23:41;11.10;99.90
27567;DHT22;15006;48.584;9.186;2023-05-10T08:26:09;11.20;99.90
27567;DHT22;15006;48.584;9.186;2023-05-10T08:28:35;11.20;99.90
27567;DHT22;15006;48.584;9.186;2023-05-10T08:31:01;11.20;99.90
27567;DHT22;15006;48.584;9.186;2023-05-10T08:33:28;11.20;99.90
27567;DHT22;15006;48.584;9.186;2023-05-10T08:35:54;11.20;99.90
27567;DHT22;15006;48.584;9.186;2023-05-10T08:38:20;11.20;99.90
27567;DHT22;15006;48.584;9.186;2023-05-10T08:40:49;11.30;99.90
27567;DHT22;15006;48.584;9.186;2023-05-10T08:43:16;11.30;99.90
27567;DHT22;15006;48.584;9.186;2023-05-10T08:45:44;11.40;99.90
27567;DHT22;15006;48.584;9.186;2023-05-10T08:48:14;11.50;99.90
27567;DHT22;15006;48.584;9.186;2023-05-10T08:50:41;11.50;99.90
27567;DHT22;15006;48.584;9.186;2023-05-10T08:53:13;11.60;99.90
27567;DHT22;15006;48.584;9.186;2023-05-10T08:55:40;11.70;99.90
27567;DHT22;15006;48.584;9.186;2023-05-10T08:58:08;11.70;99.90
27567;DHT22;15006;48.584;9.186;2023-05-10T09:00:36;11.80;99.90
27567;DHT22;15006;48.584;9.186;2023-05-10T09:03:04;11.90;99.90
27567;DHT22;15006;48.584;9.186;2023-05-10T09:05:31;12.00;99.90
27567;DHT22;15006;48.584;9.186;2023-05-10T09:07:58;12.00;99.90
27567;DHT22;15006;48.584;9.186;2023-05-10T09:10:27;12.00;99.90
27567;DHT22;15006;48.584;9.186;2023-05-10T09:12:56;12.10;99.90
27567;DHT22;15006;48.584;9.186;2023-05-10T09:15:23;12.10;99.90
27567;DHT22;15006;48.584;9.186;2023-05-10T09:17:50;12.10;99.90
27567;DHT22;15006;48.584;9.186;2023-05-10T09:20:17;12.10;99.90
27567;DHT22;15006;48.584;9.186;2023-05-10T09:22:44;12.10;99.90
27567;DHT22;15006;48.584;9.186;2023-05-10T09:25:16;12.10;99.90
27567;DHT22;15006;48.584;9.186;2023-05-10T09:27:46;12.10;99.90
27567;DHT22;15006;48.584;9.186;2023-05-10T09:30:29;12.10;99.90
27567;DHT22;15006;48.584;9.186;2023-05-10T09:32:58;12.20;99.90
27567;DHT22;15006;48.584;9.186;2023-05-10T09:35:31;12.20;99.90
27567;DHT22;15006;48.584;9.186;2023-05-10T09:38:03;12.20;99.90
27567;DHT22;15006;48.584;9.186;2023-05-10T09:40:33;12.40;99.90
27567;DHT22;15006;48.584;9.186;2023-05-10T09:43:03;12.40;99.90
27567;DHT22;15006;48.584;9.186;2023-05-10T09:45:34;12.40;99.90
27567;DHT22;15006;48.584;9.186;2023-05-10T09:48:03;12.50;99.90
27567;DHT22;15006;48.584;9.186;2023-05-10T09:50:30;12.60;99.90
27567;DHT22;15006;48.584;9.186;2023-05-10T09:52:59;12.60;99.90
27567;DHT22;15006;48.584;9.186;2023-05-10T09:55:43;12.70;99.90
27567;DHT22;15006;48.584;9.186;2023-05-10T09:58:20;12.80;99.90
27567;DHT22;15006;48.584;9.186;2023-05-10T10:00:53;12.90;99.90
27567;DHT22;15006;48.584;9.186;2023-05-10T10:03:23;13.00;99.90
27567;DHT22;15006;48.584;9.186;2023-05-10T10:05:51;13.00;99.90
27567;DHT22;15006;48.584;9.186;2023-05-10T10:08:20;13.10;99.90
27567;DHT22;15006;48.584;9.186;2023-05-10T10:10:50;13.20;99.90
27567;DHT22;15006;48.584;9.186;2023-05-10T10:13:18;13.30;99.90
27567;DHT22;15006;48.584;9.186;2023-05-10T10:15:47;13.30;99.90
27567;DHT22;15006;48.584;9.186;2023-05-10T10:18:17;13.50;99.90
27567;DHT22;15006;48.584;9.186;2023-05-10T10:20:45;13.60;99.80
27567;DHT22;15006;48.584;9.186;2023-05-10T10:23:12;13.60;99.90
27567;DHT22;15006;48.584;9.186;2023-05-10T10:25:38;13.70;99.90
27567;DHT22;15006;48.584;9.186;2023-05-10T10:28:31;13.70;99.50
27567;DHT22;15006;48.584;9.186;2023-05-10T10:31:17;13.70;97.20
27567;DHT22;15006;48.584;9.186;2023-05-10T10:34:05;13.70;98.20
27567;DHT22;15006;48.584;9.186;2023-05-10T10:36:40;13.70;95.00
27567;DHT22;15006;48.584;9.186;2023-05-10T10:39:11;13.60;94.60
27567;DHT22;15006;48.584;9.186;2023-05-10T10:41:40;13.50;96.00
27567;DHT22;15006;48.584;9.186;2023-05-10T10:44:34;13.30;95.40
27567;DHT22;15006;48.584;9.186;2023-05-10T10:47:09;13.20;92.90
27567;DHT22;15006;48.584;9.186;2023-05-10T10:50:10;13.10;96.50
27567;DHT22;15006;48.584;9.186;2023-05-10T10:52:43;12.90;96.80
27567;DHT22;15006;48.584;9.186;2023-05-10T10:55:19;12.80;97.60
27567;DHT22;15006;48.584;9.186;2023-05-10T10:57:53;12.70;96.60
27567;DHT22;15006;48.584;9.186;2023-05-10T11:00:36;12.60;98.30
27567;DHT22;15006;48.584;9.186;2023-05-10T11:03:11;12.40;98.40
27567;DHT22;15006;48.584;9.186;2023-05-10T11:05:47;12.30;98.50
27567;DHT22;15006;48.584;9.186;2023-05-10T11:08:41;12.20;98.50
27567;DHT22;15006;48.584;9.186;2023-05-10T11:11:14;12.00;96.10
27567;DHT22;15006;48.584;9.186;2023-05-10T11:13:45;11.80;97.30
27567;DHT22;15006;48.584;9.186;2023-05-10T11:16:23;11.50;97.70
27567;DHT22;15006;48.584;9.186;2023-05-10T11:19:03;11.20;98.50
27567;DHT22;15006;48.584;9.186;2023-05-10T11:21:32;11.00;98.70
27567;DHT22;15006;48.584;9.186;2023-05-10T11:24:00;10.70;99.90
27567;DHT22;15006;48.584;9.186;2023-05-10T11:26:34;10.50;99.90
27567;DHT22;15006;48.584;9.186;2023-05-10T11:29:00;10.40;99.90
27567;DHT22;15006;48.584;9.186;2023-05-10T11:31:29;10.10;99.90
27567;DHT22;15006;48.584;9.186;2023-05-10T11:33:58;10.00;99.90
27567;DHT22;15006;48.584;9.186;2023-05-10T11:36:29;9.80;99.90
27567;DHT22;15006;48.584;9.186;2023-05-10T11:38:59;9.70;99.90
27567;DHT22;15006;48.584;9.186;2023-05-10T11:41:29;9.60;99.90
27567;DHT22;15006;48.584;9.186;2023-05-10T11:43:57;9.60;99.90
27567;DHT22;15006;48.584;9.186;2023-05-10T11:46:25;9.50;99.90
27567;DHT22;15006;48.584;9.186;2023-05-10T11:49:00;9.40;99.90
27567;DHT22;15006;48.584;9.186;2023-05-10T11:51:32;9.40;99.90
27567;DHT22;15006;48.584;9.186;2023-05-10T11:53:59;9.50;99.90
27567;DHT22;15006;48.584;9.186;2023-05-10T11:56:26;9.50;99.90
27567;DHT22;15006;48.584;9.186;2023-05-10T11:58:54;9.50;99.90
27567;DHT22;15006;48.584;9.186;2023-05-10T12:01:22;9.60;99.90
27567;DHT22;15006;48.584;9.186;2023-05-10T12:03:53;9.70;99.90
27567;DHT22;15006;48.584;9.186;2023-05-10T12:06:21;9.90;99.90
27567;DHT22;15006;48.584;9.186;2023-05-10T12:08:48;9.90;99.90
27567;DHT22;15006;48.584;9.186;2023-05-10T12:11:24;10.10;99.90
27567;DHT22;15006;48.584;9.186;2023-05-10T12:13:51;10.10;99.90
27567;DHT22;15006;48.584;9.186;2023-05-10T12:16:21;10.20;99.90
27567;DHT22;15006;48.584;9.186;2023-05-10T12:18:52;10.30;99.90
27567;DHT22;15006;48.584;9.186;2023-05-10T12:21:20;10.30;99.90
27567;DHT22;15006;48.584;9.186;2023-05-10T12:23:51;10.40;99.90
27567;DHT22;15006;48.584;9.186;2023-05-10T12:26:21;10.50;99.90
27567;DHT22;15006;48.584;9.186;2023-05-10T12:28:48;10.50;99.90
27567;DHT22;15006;48.584;9.186;2023-05-10T12:31:14;10.60;99.90
27567;DHT22;15006;48.584;9.186;2023-05-10T12:33:42;10.70;99.90
27567;DHT22;15006;48.584;9.186;2023-05-10T12:36:11;10.90;99.90
27567;DHT22;15006;48.584;9.186;2023-05-10T12:38:41;11.00;99.90
27567;DHT22;15006;48.584;9.186;2023-05-10T12:41:10;11.10;99.90
27567;DHT22;15006;48.584;9.186;2023-05-10T12:43:38;11.30;99.90
27567;DHT22;15006;48.584;9.186;2023-05-10T12:46:17;11.40;99.90
27567;DHT22;15006;48.584;9.186;2023-05-10T12:48:44;11.60;99.90
27567;DHT22;15006;48.584;9.186;2023-05-10T12:51:11;11.70;99.90
27567;DHT22;15006;48.584;9.186;2023-05-10T12:53:40;11.70;99.90
27567;DHT22;15006;48.584;9.186;2023-05-10T12:56:07;11.80;99.90
27567;DHT22;15006;48.584;9.186;2023-05-10T12:58:33;11.90;99.90
27567;DHT22;15006;48.584;9.186;2023-05-10T13:00:59;12.00;99.90
27567;DHT22;15006;48.584;9.186;2023-05-10T13:03:26;12.00;99.90
27567;DHT22;15006;48.584;9.186;2023-05-10T13:05:52;12.10;99.90
27567;DHT22;15006;48.584;9.186;2023-05-10T13:08:18;12.10;99.90
27567;DHT22;15006;48.584;9.186;2023-05-10T13:10:44;12.20;99.90
27567;DHT22;15006;48.584;9.186;2023-05-10T13:13:10;12.10;99.90
27567;DHT22;15006;48.584;9.186;2023-05-10T13:15:36;12.20;99.90
27567;DHT22;15006;48.584;9.186;2023-05-10T13:18:03;12.20;99.90
27567;DHT22;15006;48.584;9.186;2023-05-10T13:20:29;12.30;99.90
27567;DHT22;15006;48.584;9.186;2023-05-10T13:22:55;12.30;99.90
27567;DHT22;15006;48.584;9.186;2023-05-10T13:25:21;12.30;99.90
27567;DHT22;15006;48.584;9.186;2023-05-10T13:27:47;12.40;99.90
27567;DHT22;15006;48.584;9.186;2023-05-10T13:30:13;12.40;99.90
27567;DHT22;15006;48.584;9.186;2023-05-10T13:32:39;12.50;99.90
27567;DHT22;15006;48.584;9.186;2023-05-10T13:35:06;12.60;99.90
27567;DHT22;15006;48.584;9.186;2023-05-10T13:37:32;12.60;99.90
27567;DHT22;15006;48.584;9.186;2023-05-10T13:40:01;12.70;99.90
27567;DHT22;15006;48.584;9.186;2023-05-10T13:42:28;12.80;99.90
27567;DHT22;15006;48.584;9.186;2023-05-10T13:44:54;12.80;99.90
27567;DHT22;15006;48.584;9.186;2023-05-10T13:47:20;12.90;99.90
27567;DHT22;15006;48.584;9.186;2023-05-10T13:49:47;12.90;99.80
27567;DHT22;15006;48.584;9.186;2023-05-10T13:52:13;12.80;99.90
27567;DHT22;15006;48.584;9.186;2023-05-10T13:54:39;12.90;99.90
27567;DHT22;15006;48.584;9.186;2023-05-10T13:57:05;12.90;99.90
27567;DHT22;15006;48.584;9.186;2023-05-10T13:59:32;12.90;99.90
27567;DHT22;15006;48.584;9.186;2023-05-10T14:01:58;13.00;99.10
27567;DHT22;15006;48.584;9.186;2023-05-10T14:04:25;13.00;99.20
27567;DHT22;15006;48.584;9.186;2023-05-10T14:06:51;13.00;96.90
27567;DHT22;15006;48.584;9.186;2023-05-10T14:09:18;13.00;96.30
27567;DHT22;15006;48.584;9.186;2023-05-10T14:11:45;12.90;97.40
27567;DHT22;15006;48.584;9.186;2023-05-10T14:14:12;13.00;98.20
27567;DHT22;15006;48.584;9.186;2023-05-10T14:16:42;12.90;99.00
27567;DHT22;15006;48.584;9.186;2023-05-10T14:19:09;12.90;96.40
27567;DHT22;15006;48.584;9.186;2023-05-10T14:21:35;13.00;97.60
27567;DHT22;15006;48.584;9.186;2023-05-10T14:24:01;12.90;97.70
27567;DHT22;15006;48.584;9.186;2023-05-10T14:26:28;12.90;98.50
27567;DHT22;15006;48.584;9.186;2023-05-10T14:28:54;12.90;99.10
27567;DHT22;15006;48.584;9.186;2023-05-10T14:31:20;12.90;97.70
27567;DHT22;15006;48.584;9.186;2023-05-10T14:33:46;13.00;97.90
27567;DHT22;15006;48.584;9.186;2023-05-10T14:36:13;13.00;97.20
27567;DHT22;15006;48.584;9.186;2023-05-10T14:38:39;13.00;98.40
27567;DHT22;15006;48.584;9.186;2023-05-10T14:41:06;13.00;99.10
27567;DHT22;15006;48.584;9.186;2023-05-10T14:43:32;13.00;99.20
27567;DHT22;15006;48.584;9.186;2023-05-10T14:45:58;13.10;97.50
27567;DHT22;15006;48.584;9.186;2023-05-10T14:48:24;13.10;97.40
27567;DHT22;15006;48.584;9.186;2023-05-10T14:50:50;13.20;97.10
27567;DHT22;15006;48.584;9.186;2023-05-10T14:53:18;13.20;96.90
27567;DHT22;15006;48.584;9.186;2023-05-10T14:55:44;13.20;95.30
27567;DHT22;15006;48.584;9.186;2023-05-10T14:58:10;13.20;96.70
27567;DHT22;15006;48.584;9.186;2023-05-10T15:00:36;13.20;96.70
27567;DHT22;15006;48.584;9.186;2023-05-10T15:03:02;13.20;97.20
27567;DHT22;15006;48.584;9.186;2023-05-10T15:05:29;13.20;97.10
27567;DHT22;15006;48.584;9.186;2023-05-10T15:07:54;13.20;96.50
27567;DHT22;15006;48.584;9.186;2023-05-10T15:10:21;13.20;96.30
27567;DHT22;15006;48.584;9.186;2023-05-10T15:12:47;13.20;96.20
27567;DHT22;15006;48.584;9.186;2023-05-10T15:15:13;13.20;95.80
27567;DHT22;15006;48.584;9.186;2023-05-10T15:17:40;13.20;96.50
27567;DHT22;15006;48.584;9.186;2023-05-10T15:20:07;13.20;96.90
27567;DHT22;15006;48.584;9.186;2023-05-10T15:22:33;13.20;97.20
27567;DHT22;15006;48.584;9.186;2023-05-10T15:25:00;13.20;97.00
27567;DHT22;15006;48.584;9.186;2023-05-10T15:27:28;13.20;96.60
27567;DHT22;15006;48.584;9.186;2023-05-10T15:29:54;13.20;96.40
27567;DHT22;15006;48.584;9.186;2023-05-10T15:32:21;13.30;96.60
27567;DHT22;15006;48.584;9.186;2023-05-10T15:34:46;13.30;96.00
27567;DHT22;15006;48.584;9.186;2023-05-10T15:37:12;13.30;95.30
27567;DHT22;15006;48.584;9.186;2023-05-10T15:39:38;13.40;96.10
27567;DHT22;15006;48.584;9.186;2023-05-10T15:42:04;13.40;95.60
27567;DHT22;15006;48.584;9.186;2023-05-10T15:44:30;13.40;95.50
27567;DHT22;15006;48.584;9.186;2023-05-10T15:46:56;13.50;95.90
27567;DHT22;15006;48.584;9.186;2023-05-10T15:49:22;13.50;95.60
27567;DHT22;15006;48.584;9.186;2023-05-10T15:51:48;13.50;96.40